Terminal Aerodrome Forecast
Issued by NWS

Home | Current Version | Previous Version | Text Only | Print | Product List | Glossary On
Versions: 1 2 3 4 5 6 7 8 9 10 11 12
154
FTAK31 PAJN 230531
TAFAGY
TAF
PAGY 230531Z 2306/2406 21020G30KT P6SM -RA FEW006 SCT025 OVC040
      TEMPO 2306/2310 21015KT 4SM -RA BR FEW006 SCT010 BKN025
     FM231000 20012KT 4SM -RA BR SCT010 BKN025 OVC035
      TEMPO 2310/2314 6SM -RA SCT025 OVC050
     FM231400 20008KT 3SM -RA BR FEW004 BKN010 OVC025
     FM232100 22015G25KT 5SM -RA BR BKN025 OVC035
      AMD LTD TO CLD VIS AND WIND=

USA.gov is the U.S. government's official web portal to all federal, state and local government web resources and services.